sensor_id;sensor_type;location;lat;lon;timestamp;temperature;humidity
19898;DHT22;10111;50.814;4.572;2022-10-16T00:01:57;13.90;99.90
19898;DHT22;10111;50.814;4.572;2022-10-16T00:04:22;14.00;99.90
19898;DHT22;10111;50.814;4.572;2022-10-16T00:06:48;13.90;99.90
19898;DHT22;10111;50.814;4.572;2022-10-16T00:09:13;14.00;99.90
19898;DHT22;10111;50.814;4.572;2022-10-16T00:11:39;13.90;99.90
19898;DHT22;10111;50.814;4.572;2022-10-16T00:14:09;14.20;99.90
19898;DHT22;10111;50.814;4.572;2022-10-16T00:16:35;13.90;99.90
19898;DHT22;10111;50.814;4.572;2022-10-16T00:19:01;13.90;99.90
19898;DHT22;10111;50.814;4.572;2022-10-16T00:21:28;13.90;99.90
19898;DHT22;10111;50.814;4.572;2022-10-16T00:23:57;13.90;99.90
19898;DHT22;10111;50.814;4.572;2022-10-16T00:26:22;13.90;99.90
19898;DHT22;10111;50.814;4.572;2022-10-16T00:28:49;13.90;99.90
19898;DHT22;10111;50.814;4.572;2022-10-16T00:31:17;13.90;99.90
19898;DHT22;10111;50.814;4.572;2022-10-16T00:33:43;13.90;99.90
19898;DHT22;10111;50.814;4.572;2022-10-16T00:36:12;13.90;99.90
19898;DHT22;10111;50.814;4.572;2022-10-16T00:38:38;13.80;99.90
19898;DHT22;10111;50.814;4.572;2022-10-16T00:41:11;14.00;99.90
19898;DHT22;10111;50.814;4.572;2022-10-16T00:43:46;13.80;99.90
19898;DHT22;10111;50.814;4.572;2022-10-16T00:49:02;13.80;99.90
19898;DHT22;10111;50.814;4.572;2022-10-16T00:51:35;13.70;99.90
19898;DHT22;10111;50.814;4.572;2022-10-16T00:54:03;13.70;99.90
19898;DHT22;10111;50.814;4.572;2022-10-16T00:56:29;13.80;99.90
19898;DHT22;10111;50.814;4.572;2022-10-16T00:58:55;13.70;99.90
19898;DHT22;10111;50.814;4.572;2022-10-16T01:01:21;13.70;99.90
19898;DHT22;10111;50.814;4.572;2022-10-16T01:03:46;13.70;99.90
19898;DHT22;10111;50.814;4.572;2022-10-16T01:06:32;13.70;99.90
19898;DHT22;10111;50.814;4.572;2022-10-16T01:14:08;13.60;99.90
19898;DHT22;10111;50.814;4.572;2022-10-16T01:16:48;13.60;99.90
19898;DHT22;10111;50.814;4.572;2022-10-16T01:19:31;13.60;99.90
19898;DHT22;10111;50.814;4.572;2022-10-16T01:22:00;13.60;99.90
19898;DHT22;10111;50.814;4.572;2022-10-16T01:24:37;13.60;99.90
19898;DHT22;10111;50.814;4.572;2022-10-16T01:29:50;13.50;99.90
19898;DHT22;10111;50.814;4.572;2022-10-16T01:38:06;13.50;99.90
19898;DHT22;10111;50.814;4.572;2022-10-16T01:40:34;13.50;99.90
19898;DHT22;10111;50.814;4.572;2022-10-16T01:43:26;13.50;99.90
19898;DHT22;10111;50.814;4.572;2022-10-16T01:45:52;13.50;99.90
19898;DHT22;10111;50.814;4.572;2022-10-16T01:48:19;13.50;99.90
19898;DHT22;10111;50.814;4.572;2022-10-16T01:50:55;13.50;99.90
19898;DHT22;10111;50.814;4.572;2022-10-16T01:53:22;13.50;99.90
19898;DHT22;10111;50.814;4.572;2022-10-16T01:55:49;13.50;99.90
19898;DHT22;10111;50.814;4.572;2022-10-16T01:58:17;13.50;99.90
19898;DHT22;10111;50.814;4.572;2022-10-16T02:00:45;13.50;99.90
19898;DHT22;10111;50.814;4.572;2022-10-16T02:03:16;13.50;99.90
19898;DHT22;10111;50.814;4.572;2022-10-16T02:05:52;13.70;99.90
19898;DHT22;10111;50.814;4.572;2022-10-16T02:08:19;13.50;99.90
19898;DHT22;10111;50.814;4.572;2022-10-16T02:10:45;13.50;99.90
19898;DHT22;10111;50.814;4.572;2022-10-16T02:15:56;13.50;99.90
19898;DHT22;10111;50.814;4.572;2022-10-16T02:18:22;13.50;99.90
19898;DHT22;10111;50.814;4.572;2022-10-16T02:20:59;13.60;99.90
19898;DHT22;10111;50.814;4.572;2022-10-16T02:23:51;13.60;99.90
19898;DHT22;10111;50.814;4.572;2022-10-16T02:26:23;13.60;99.90
19898;DHT22;10111;50.814;4.572;2022-10-16T02:28:56;13.60;99.90
19898;DHT22;10111;50.814;4.572;2022-10-16T02:31:29;13.70;99.90
19898;DHT22;10111;50.814;4.572;2022-10-16T02:33:59;13.60;99.90
19898;DHT22;10111;50.814;4.572;2022-10-16T02:36:26;13.60;99.90
19898;DHT22;10111;50.814;4.572;2022-10-16T02:38:52;13.80;99.90
19898;DHT22;10111;50.814;4.572;2022-10-16T02:41:21;13.60;99.90
19898;DHT22;10111;50.814;4.572;2022-10-16T02:43:46;13.60;99.90
19898;DHT22;10111;50.814;4.572;2022-10-16T02:46:12;13.50;99.90
19898;DHT22;10111;50.814;4.572;2022-10-16T02:48:38;13.50;99.90
19898;DHT22;10111;50.814;4.572;2022-10-16T02:51:04;13.80;99.90
19898;DHT22;10111;50.814;4.572;2022-10-16T02:53:30;13.50;99.90
19898;DHT22;10111;50.814;4.572;2022-10-16T02:55:56;13.50;99.90
19898;DHT22;10111;50.814;4.572;2022-10-16T02:58:21;13.50;99.90
19898;DHT22;10111;50.814;4.572;2022-10-16T03:00:47;13.40;99.90
19898;DHT22;10111;50.814;4.572;2022-10-16T03:03:13;13.40;99.90
19898;DHT22;10111;50.814;4.572;2022-10-16T03:05:38;13.40;99.90
19898;DHT22;10111;50.814;4.572;2022-10-16T03:08:04;13.40;99.90
19898;DHT22;10111;50.814;4.572;2022-10-16T03:10:30;13.40;99.90
19898;DHT22;10111;50.814;4.572;2022-10-16T03:12:55;13.50;99.90
19898;DHT22;10111;50.814;4.572;2022-10-16T03:15:21;13.40;99.90
19898;DHT22;10111;50.814;4.572;2022-10-16T03:17:46;13.40;99.90
19898;DHT22;10111;50.814;4.572;2022-10-16T03:20:12;13.40;99.90
19898;DHT22;10111;50.814;4.572;2022-10-16T03:22:37;13.40;99.90
19898;DHT22;10111;50.814;4.572;2022-10-16T03:25:03;13.40;99.90
19898;DHT22;10111;50.814;4.572;2022-10-16T03:27:29;13.40;99.90
19898;DHT22;10111;50.814;4.572;2022-10-16T03:29:58;13.40;99.90
19898;DHT22;10111;50.814;4.572;2022-10-16T03:32:23;13.40;99.90
19898;DHT22;10111;50.814;4.572;2022-10-16T03:34:50;13.40;99.90
19898;DHT22;10111;50.814;4.572;2022-10-16T03:37:16;13.60;99.90
19898;DHT22;10111;50.814;4.572;2022-10-16T03:39:41;13.40;99.90
19898;DHT22;10111;50.814;4.572;2022-10-16T03:42:07;13.60;99.90
19898;DHT22;10111;50.814;4.572;2022-10-16T03:44:32;13.50;99.90
19898;DHT22;10111;50.814;4.572;2022-10-16T03:46:58;13.40;99.90
19898;DHT22;10111;50.814;4.572;2022-10-16T03:49:23;13.40;99.90
19898;DHT22;10111;50.814;4.572;2022-10-16T03:51:49;13.50;99.90
19898;DHT22;10111;50.814;4.572;2022-10-16T03:54:15;13.50;99.90
19898;DHT22;10111;50.814;4.572;2022-10-16T03:56:43;13.70;99.90
19898;DHT22;10111;50.814;4.572;2022-10-16T03:59:08;13.50;99.90
19898;DHT22;10111;50.814;4.572;2022-10-16T04:01:34;13.50;99.90
19898;DHT22;10111;50.814;4.572;2022-10-16T04:04:00;13.70;99.90
19898;DHT22;10111;50.814;4.572;2022-10-16T04:06:25;13.60;99.90
19898;DHT22;10111;50.814;4.572;2022-10-16T04:08:51;13.60;99.90
19898;DHT22;10111;50.814;4.572;2022-10-16T04:11:17;13.50;99.90
19898;DHT22;10111;50.814;4.572;2022-10-16T04:13:42;13.50;99.90
19898;DHT22;10111;50.814;4.572;2022-10-16T04:16:09;13.60;99.90
19898;DHT22;10111;50.814;4.572;2022-10-16T04:18:34;13.50;99.90
19898;DHT22;10111;50.814;4.572;2022-10-16T04:21:05;13.50;99.90
19898;DHT22;10111;50.814;4.572;2022-10-16T04:23:32;13.50;99.90
19898;DHT22;10111;50.814;4.572;2022-10-16T04:25:58;13.60;99.90
19898;DHT22;10111;50.814;4.572;2022-10-16T04:28:23;13.50;99.90
19898;DHT22;10111;50.814;4.572;2022-10-16T04:30:49;13.80;99.90
19898;DHT22;10111;50.814;4.572;2022-10-16T04:33:14;13.60;99.90
19898;DHT22;10111;50.814;4.572;2022-10-16T04:35:40;13.70;99.90
19898;DHT22;10111;50.814;4.572;2022-10-16T04:38:05;13.60;99.90
19898;DHT22;10111;50.814;4.572;2022-10-16T04:40:31;13.60;99.90
19898;DHT22;10111;50.814;4.572;2022-10-16T04:43:02;13.60;99.90
19898;DHT22;10111;50.814;4.572;2022-10-16T04:45:28;13.60;99.90
19898;DHT22;10111;50.814;4.572;2022-10-16T04:47:57;13.60;99.90
19898;DHT22;10111;50.814;4.572;2022-10-16T04:50:23;13.60;99.90
19898;DHT22;10111;50.814;4.572;2022-10-16T04:52:48;13.50;99.90
19898;DHT22;10111;50.814;4.572;2022-10-16T04:55:14;13.60;99.90
19898;DHT22;10111;50.814;4.572;2022-10-16T04:57:40;13.50;99.90
19898;DHT22;10111;50.814;4.572;2022-10-16T05:00:06;13.40;99.90
19898;DHT22;10111;50.814;4.572;2022-10-16T05:02:33;13.50;99.90
19898;DHT22;10111;50.814;4.572;2022-10-16T05:04:59;13.60;99.90
19898;DHT22;10111;50.814;4.572;2022-10-16T05:07:24;13.60;99.90
19898;DHT22;10111;50.814;4.572;2022-10-16T05:09:50;13.60;99.90
19898;DHT22;10111;50.814;4.572;2022-10-16T05:12:16;13.40;99.90
19898;DHT22;10111;50.814;4.572;2022-10-16T05:14:41;13.40;99.90
19898;DHT22;10111;50.814;4.572;2022-10-16T05:17:07;13.50;99.90
19898;DHT22;10111;50.814;4.572;2022-10-16T05:19:33;13.30;99.90
19898;DHT22;10111;50.814;4.572;2022-10-16T05:21:58;13.30;99.90
19898;DHT22;10111;50.814;4.572;2022-10-16T05:24:24;13.30;99.90
19898;DHT22;10111;50.814;4.572;2022-10-16T05:26:50;13.30;99.90
19898;DHT22;10111;50.814;4.572;2022-10-16T05:29:16;13.30;99.90
19898;DHT22;10111;50.814;4.572;2022-10-16T05:31:41;13.30;99.90
19898;DHT22;10111;50.814;4.572;2022-10-16T05:34:07;13.30;99.90
19898;DHT22;10111;50.814;4.572;2022-10-16T05:36:33;13.30;99.90
19898;DHT22;10111;50.814;4.572;2022-10-16T05:38:58;13.30;99.90
19898;DHT22;10111;50.814;4.572;2022-10-16T05:41:24;13.30;99.90
19898;DHT22;10111;50.814;4.572;2022-10-16T05:43:51;13.30;99.90
19898;DHT22;10111;50.814;4.572;2022-10-16T05:46:18;13.30;99.90
19898;DHT22;10111;50.814;4.572;2022-10-16T05:48:44;13.30;99.90
19898;DHT22;10111;50.814;4.572;2022-10-16T05:51:11;13.30;99.90
19898;DHT22;10111;50.814;4.572;2022-10-16T05:53:38;13.20;99.90
19898;DHT22;10111;50.814;4.572;2022-10-16T05:56:05;13.20;99.90
19898;DHT22;10111;50.814;4.572;2022-10-16T05:58:34;13.20;99.90
19898;DHT22;10111;50.814;4.572;2022-10-16T06:01:12;13.20;99.90
19898;DHT22;10111;50.814;4.572;2022-10-16T06:03:38;13.20;99.90
19898;DHT22;10111;50.814;4.572;2022-10-16T06:06:25;13.10;99.90
19898;DHT22;10111;50.814;4.572;2022-10-16T06:08:52;13.20;99.90
19898;DHT22;10111;50.814;4.572;2022-10-16T06:11:20;13.10;99.90
19898;DHT22;10111;50.814;4.572;2022-10-16T06:13:53;13.10;99.90
19898;DHT22;10111;50.814;4.572;2022-10-16T06:16:20;13.10;99.90
19898;DHT22;10111;50.814;4.572;2022-10-16T06:18:46;13.20;99.90
19898;DHT22;10111;50.814;4.572;2022-10-16T06:21:17;13.10;99.90
19898;DHT22;10111;50.814;4.572;2022-10-16T06:23:43;13.20;99.90
19898;DHT22;10111;50.814;4.572;2022-10-16T06:26:12;13.00;99.90
19898;DHT22;10111;50.814;4.572;2022-10-16T06:28:38;13.00;99.90
19898;DHT22;10111;50.814;4.572;2022-10-16T06:31:05;13.20;99.90
19898;DHT22;10111;50.814;4.572;2022-10-16T06:33:32;13.00;99.90
19898;DHT22;10111;50.814;4.572;2022-10-16T06:36:09;13.00;99.90
19898;DHT22;10111;50.814;4.572;2022-10-16T06:38:35;13.00;99.90
19898;DHT22;10111;50.814;4.572;2022-10-16T06:41:01;13.00;99.90
19898;DHT22;10111;50.814;4.572;2022-10-16T06:43:28;13.10;99.90
19898;DHT22;10111;50.814;4.572;2022-10-16T06:45:58;13.00;99.90
19898;DHT22;10111;50.814;4.572;2022-10-16T06:48:24;13.00;99.90
19898;DHT22;10111;50.814;4.572;2022-10-16T06:51:07;13.00;99.90
19898;DHT22;10111;50.814;4.572;2022-10-16T06:53:36;13.10;99.90
19898;DHT22;10111;50.814;4.572;2022-10-16T06:56:14;13.10;99.90
19898;DHT22;10111;50.814;4.572;2022-10-16T06:58:42;13.20;99.90
19898;DHT22;10111;50.814;4.572;2022-10-16T07:01:08;13.30;99.90
19898;DHT22;10111;50.814;4.572;2022-10-16T07:03:37;13.30;99.90
19898;DHT22;10111;50.814;4.572;2022-10-16T07:06:04;13.40;99.90
19898;DHT22;10111;50.814;4.572;2022-10-16T07:08:32;13.50;99.90
19898;DHT22;10111;50.814;4.572;2022-10-16T07:11:02;13.70;99.90
19898;DHT22;10111;50.814;4.572;2022-10-16T07:13:28;13.60;99.90
19898;DHT22;10111;50.814;4.572;2022-10-16T07:15:54;13.60;99.90
19898;DHT22;10111;50.814;4.572;2022-10-16T07:18:19;13.70;99.90
19898;DHT22;10111;50.814;4.572;2022-10-16T07:20:45;13.70;99.90
19898;DHT22;10111;50.814;4.572;2022-10-16T07:23:11;13.70;99.90
19898;DHT22;10111;50.814;4.572;2022-10-16T07:25:36;14.00;99.90
19898;DHT22;10111;50.814;4.572;2022-10-16T07:28:02;13.80;99.90
19898;DHT22;10111;50.814;4.572;2022-10-16T07:30:28;13.80;99.90
19898;DHT22;10111;50.814;4.572;2022-10-16T07:32:53;13.90;99.90
19898;DHT22;10111;50.814;4.572;2022-10-16T07:35:19;13.90;99.90
19898;DHT22;10111;50.814;4.572;2022-10-16T07:37:45;14.00;99.90
19898;DHT22;10111;50.814;4.572;2022-10-16T07:40:11;14.00;99.90
19898;DHT22;10111;50.814;4.572;2022-10-16T07:42:37;14.10;99.90
19898;DHT22;10111;50.814;4.572;2022-10-16T07:45:03;14.20;99.90
19898;DHT22;10111;50.814;4.572;2022-10-16T07:47:29;14.10;99.90
19898;DHT22;10111;50.814;4.572;2022-10-16T07:49:54;14.20;99.90
19898;DHT22;10111;50.814;4.572;2022-10-16T07:52:20;14.20;99.90
19898;DHT22;10111;50.814;4.572;2022-10-16T07:54:45;14.20;99.90
19898;DHT22;10111;50.814;4.572;2022-10-16T07:57:11;14.60;99.90
19898;DHT22;10111;50.814;4.572;2022-10-16T07:59:37;14.50;99.90
19898;DHT22;10111;50.814;4.572;2022-10-16T08:02:02;14.60;99.90
19898;DHT22;10111;50.814;4.572;2022-10-16T08:04:28;14.70;99.90
19898;DHT22;10111;50.814;4.572;2022-10-16T08:06:54;14.70;99.90
19898;DHT22;10111;50.814;4.572;2022-10-16T08:09:20;15.00;99.90
19898;DHT22;10111;50.814;4.572;2022-10-16T08:11:45;15.00;99.90
19898;DHT22;10111;50.814;4.572;2022-10-16T08:14:11;15.20;99.90
19898;DHT22;10111;50.814;4.572;2022-10-16T08:16:36;15.60;99.90
19898;DHT22;10111;50.814;4.572;2022-10-16T08:19:02;15.50;99.90
19898;DHT22;10111;50.814;4.572;2022-10-16T08:21:28;15.70;99.90
19898;DHT22;10111;50.814;4.572;2022-10-16T08:23:54;15.80;99.90
19898;DHT22;10111;50.814;4.572;2022-10-16T08:26:20;15.80;99.90
19898;DHT22;10111;50.814;4.572;2022-10-16T08:28:49;15.90;99.90
19898;DHT22;10111;50.814;4.572;2022-10-16T08:31:15;16.00;99.90
19898;DHT22;10111;50.814;4.572;2022-10-16T08:33:43;16.20;99.90
19898;DHT22;10111;50.814;4.572;2022-10-16T08:36:11;16.10;99.90
19898;DHT22;10111;50.814;4.572;2022-10-16T08:38:37;16.20;99.90
19898;DHT22;10111;50.814;4.572;2022-10-16T08:49:30;16.50;99.90
19898;DHT22;10111;50.814;4.572;2022-10-16T08:51:56;16.50;99.90
19898;DHT22;10111;50.814;4.572;2022-10-16T08:54:34;16.60;99.90
19898;DHT22;10111;50.814;4.572;2022-10-16T08:57:19;16.60;99.90
19898;DHT22;10111;50.814;4.572;2022-10-16T08:59:45;16.80;99.90
19898;DHT22;10111;50.814;4.572;2022-10-16T09:02:32;16.80;99.90
19898;DHT22;10111;50.814;4.572;2022-10-16T09:08:01;16.80;99.90
19898;DHT22;10111;50.814;4.572;2022-10-16T09:13:21;16.90;99.90
19898;DHT22;10111;50.814;4.572;2022-10-16T09:18:20;17.10;99.90
19898;DHT22;10111;50.814;4.572;2022-10-16T09:20:57;17.10;99.90
19898;DHT22;10111;50.814;4.572;2022-10-16T09:23:29;17.20;99.90
19898;DHT22;10111;50.814;4.572;2022-10-16T09:25:56;17.20;99.90
19898;DHT22;10111;50.814;4.572;2022-10-16T09:28:23;17.20;99.90
19898;DHT22;10111;50.814;4.572;2022-10-16T09:30:49;17.30;99.90
19898;DHT22;10111;50.814;4.572;2022-10-16T09:33:17;17.40;99.90
19898;DHT22;10111;50.814;4.572;2022-10-16T09:38:25;17.60;99.90
19898;DHT22;10111;50.814;4.572;2022-10-16T09:40:52;17.50;99.90
19898;DHT22;10111;50.814;4.572;2022-10-16T09:43:27;17.50;99.90
19898;DHT22;10111;50.814;4.572;2022-10-16T09:46:06;17.60;99.90
19898;DHT22;10111;50.814;4.572;2022-10-16T09:48:43;17.50;99.90
19898;DHT22;10111;50.814;4.572;2022-10-16T09:51:23;17.50;99.90
19898;DHT22;10111;50.814;4.572;2022-10-16T09:53:58;17.60;99.90
19898;DHT22;10111;50.814;4.572;2022-10-16T09:56:33;17.40;99.90
19898;DHT22;10111;50.814;4.572;2022-10-16T09:59:01;17.50;99.90
19898;DHT22;10111;50.814;4.572;2022-10-16T10:01:39;17.60;99.90
19898;DHT22;10111;50.814;4.572;2022-10-16T10:04:05;17.50;99.90
19898;DHT22;10111;50.814;4.572;2022-10-16T10:06:37;17.50;99.90
19898;DHT22;10111;50.814;4.572;2022-10-16T10:12:01;17.60;99.90
19898;DHT22;10111;50.814;4.572;2022-10-16T10:14:47;17.70;99.90
19898;DHT22;10111;50.814;4.572;2022-10-16T10:17:19;17.70;99.90
19898;DHT22;10111;50.814;4.572;2022-10-16T10:19:49;17.70;99.90
19898;DHT22;10111;50.814;4.572;2022-10-16T10:22:29;17.70;99.90
19898;DHT22;10111;50.814;4.572;2022-10-16T10:30:24;17.80;99.90
19898;DHT22;10111;50.814;4.572;2022-10-16T10:35:49;17.90;99.90
19898;DHT22;10111;50.814;4.572;2022-10-16T10:46:51;18.00;99.90
19898;DHT22;10111;50.814;4.572;2022-10-16T10:52:26;18.20;99.90
19898;DHT22;10111;50.814;4.572;2022-10-16T10:55:01;18.10;99.90
19898;DHT22;10111;50.814;4.572;2022-10-16T11:00:59;18.10;99.90
19898;DHT22;10111;50.814;4.572;2022-10-16T11:03:27;18.20;99.90
19898;DHT22;10111;50.814;4.572;2022-10-16T11:06:00;18.20;99.90
19898;DHT22;10111;50.814;4.572;2022-10-16T11:08:41;18.10;99.90
19898;DHT22;10111;50.814;4.572;2022-10-16T11:11:10;18.00;99.90
19898;DHT22;10111;50.814;4.572;2022-10-16T11:13:40;18.00;99.90
19898;DHT22;10111;50.814;4.572;2022-10-16T11:16:22;18.10;99.90
19898;DHT22;10111;50.814;4.572;2022-10-16T11:19:19;18.00;99.90
19898;DHT22;10111;50.814;4.572;2022-10-16T11:21:51;18.00;99.90
19898;DHT22;10111;50.814;4.572;2022-10-16T11:24:25;18.00;99.90
19898;DHT22;10111;50.814;4.572;2022-10-16T11:26:59;18.00;99.90
19898;DHT22;10111;50.814;4.572;2022-10-16T11:29:30;18.00;99.90
19898;DHT22;10111;50.814;4.572;2022-10-16T11:32:05;18.00;99.90
19898;DHT22;10111;50.814;4.572;2022-10-16T11:34:36;18.00;99.90
19898;DHT22;10111;50.814;4.572;2022-10-16T11:37:20;18.00;99.90
19898;DHT22;10111;50.814;4.572;2022-10-16T11:39:50;18.00;99.90
19898;DHT22;10111;50.814;4.572;2022-10-16T11:42:38;17.90;99.90
19898;DHT22;10111;50.814;4.572;2022-10-16T11:45:12;17.90;99.90
19898;DHT22;10111;50.814;4.572;2022-10-16T11:47:44;17.90;99.90
19898;DHT22;10111;50.814;4.572;2022-10-16T11:55:44;18.10;99.90
19898;DHT22;10111;50.814;4.572;2022-10-16T12:03:56;18.10;99.90
19898;DHT22;10111;50.814;4.572;2022-10-16T12:09:03;18.30;99.90
19898;DHT22;10111;50.814;4.572;2022-10-16T12:19:25;18.60;99.90
19898;DHT22;10111;50.814;4.572;2022-10-16T12:21:55;18.70;99.90
19898;DHT22;10111;50.814;4.572;2022-10-16T12:24:29;18.70;99.90
19898;DHT22;10111;50.814;4.572;2022-10-16T12:26:56;18.70;99.90
19898;DHT22;10111;50.814;4.572;2022-10-16T12:29:32;18.70;99.90
19898;DHT22;10111;50.814;4.572;2022-10-16T12:31:59;18.70;99.90
19898;DHT22;10111;50.814;4.572;2022-10-16T12:34:39;18.70;99.90
19898;DHT22;10111;50.814;4.572;2022-10-16T12:37:20;18.70;99.90
19898;DHT22;10111;50.814;4.572;2022-10-16T12:39:48;18.90;99.90
19898;DHT22;10111;50.814;4.572;2022-10-16T12:44:52;19.00;99.90
19898;DHT22;10111;50.814;4.572;2022-10-16T12:47:37;19.00;99.90
19898;DHT22;10111;50.814;4.572;2022-10-16T12:50:21;19.00;99.90
19898;DHT22;10111;50.814;4.572;2022-10-16T12:52:48;19.00;99.90
19898;DHT22;10111;50.814;4.572;2022-10-16T12:55:19;19.10;99.90
19898;DHT22;10111;50.814;4.572;2022-10-16T12:58:27;19.10;99.90
19898;DHT22;10111;50.814;4.572;2022-10-16T13:17:52;19.10;99.90
19898;DHT22;10111;50.814;4.572;2022-10-16T13:20:39;19.20;99.90
19898;DHT22;10111;50.814;4.572;2022-10-16T13:28:42;19.30;99.90
19898;DHT22;10111;50.814;4.572;2022-10-16T13:31:19;19.20;99.90
19898;DHT22;10111;50.814;4.572;2022-10-16T13:33:48;19.20;99.90
19898;DHT22;10111;50.814;4.572;2022-10-16T13:36:24;19.20;99.90
19898;DHT22;10111;50.814;4.572;2022-10-16T13:39:15;19.20;99.90
19898;DHT22;10111;50.814;4.572;2022-10-16T13:41:43;19.30;99.90
19898;DHT22;10111;50.814;4.572;2022-10-16T13:44:19;19.40;99.90
19898;DHT22;10111;50.814;4.572;2022-10-16T13:46:45;19.40;99.90
19898;DHT22;10111;50.814;4.572;2022-10-16T13:49:16;19.50;99.90
19898;DHT22;10111;50.814;4.572;2022-10-16T13:51:54;19.40;99.90
19898;DHT22;10111;50.814;4.572;2022-10-16T13:54:20;19.30;99.90
19898;DHT22;10111;50.814;4.572;2022-10-16T13:56:45;19.20;99.90
19898;DHT22;10111;50.814;4.572;2022-10-16T13:59:34;19.20;99.90
19898;DHT22;10111;50.814;4.572;2022-10-16T14:04:49;19.20;99.90
19898;DHT22;10111;50.814;4.572;2022-10-16T14:07:29;19.20;99.90
19898;DHT22;10111;50.814;4.572;2022-10-16T14:10:04;19.20;99.90
19898;DHT22;10111;50.814;4.572;2022-10-16T14:12:30;19.20;99.90
19898;DHT22;10111;50.814;4.572;2022-10-16T14:14:57;19.20;99.90
19898;DHT22;10111;50.814;4.572;2022-10-16T14:17:29;19.20;99.90
19898;DHT22;10111;50.814;4.572;2022-10-16T14:19:58;19.20;99.90
19898;DHT22;10111;50.814;4.572;2022-10-16T14:22:33;19.10;99.90
19898;DHT22;10111;50.814;4.572;2022-10-16T14:25:00;19.20;99.90
19898;DHT22;10111;50.814;4.572;2022-10-16T14:27:31;19.10;99.90
19898;DHT22;10111;50.814;4.572;2022-10-16T14:30:23;19.10;99.90
19898;DHT22;10111;50.814;4.572;2022-10-16T14:35:31;19.20;99.90
19898;DHT22;10111;50.814;4.572;2022-10-16T14:37:58;19.20;99.90
19898;DHT22;10111;50.814;4.572;2022-10-16T14:40:28;19.20;99.90
19898;DHT22;10111;50.814;4.572;2022-10-16T14:42:54;19.10;99.90
19898;DHT22;10111;50.814;4.572;2022-10-16T14:45:22;19.00;99.90
19898;DHT22;10111;50.814;4.572;2022-10-16T14:47:54;19.00;99.90
19898;DHT22;10111;50.814;4.572;2022-10-16T14:50:21;18.80;99.90
19898;DHT22;10111;50.814;4.572;2022-10-16T14:52:47;19.00;99.90
19898;DHT22;10111;50.814;4.572;2022-10-16T14:55:12;18.70;99.90
19898;DHT22;10111;50.814;4.572;2022-10-16T14:57:40;18.70;99.90
19898;DHT22;10111;50.814;4.572;2022-10-16T15:00:17;18.70;99.90
19898;DHT22;10111;50.814;4.572;2022-10-16T15:02:44;18.70;99.90
19898;DHT22;10111;50.814;4.572;2022-10-16T15:05:25;18.80;99.90
19898;DHT22;10111;50.814;4.572;2022-10-16T15:07:55;18.70;99.90
19898;DHT22;10111;50.814;4.572;2022-10-16T15:10:22;18.80;99.90
19898;DHT22;10111;50.814;4.572;2022-10-16T15:12:48;18.80;99.90
19898;DHT22;10111;50.814;4.572;2022-10-16T15:17:53;18.80;99.90
19898;DHT22;10111;50.814;4.572;2022-10-16T15:20:23;18.80;99.90
19898;DHT22;10111;50.814;4.572;2022-10-16T15:22:49;18.80;99.90
19898;DHT22;10111;50.814;4.572;2022-10-16T15:25:31;18.80;99.90
19898;DHT22;10111;50.814;4.572;2022-10-16T15:27:58;18.80;99.90
19898;DHT22;10111;50.814;4.572;2022-10-16T15:30:24;18.80;99.90
19898;DHT22;10111;50.814;4.572;2022-10-16T15:32:50;18.70;99.90
19898;DHT22;10111;50.814;4.572;2022-10-16T15:35:15;18.70;99.90
19898;DHT22;10111;50.814;4.572;2022-10-16T15:37:41;18.60;99.90
19898;DHT22;10111;50.814;4.572;2022-10-16T15:40:09;18.60;99.90
19898;DHT22;10111;50.814;4.572;2022-10-16T15:42:34;18.60;99.90
19898;DHT22;10111;50.814;4.572;2022-10-16T15:45:00;18.60;99.90
19898;DHT22;10111;50.814;4.572;2022-10-16T15:47:26;18.60;99.90
19898;DHT22;10111;50.814;4.572;2022-10-16T15:49:51;18.60;99.90
19898;DHT22;10111;50.814;4.572;2022-10-16T15:52:17;18.60;99.90
19898;DHT22;10111;50.814;4.572;2022-10-16T15:54:43;18.50;99.90
19898;DHT22;10111;50.814;4.572;2022-10-16T15:57:09;18.50;99.90
19898;DHT22;10111;50.814;4.572;2022-10-16T15:59:34;18.50;99.90
19898;DHT22;10111;50.814;4.572;2022-10-16T16:02:00;18.50;99.90
19898;DHT22;10111;50.814;4.572;2022-10-16T16:04:25;18.50;99.90
19898;DHT22;10111;50.814;4.572;2022-10-16T16:06:51;18.40;99.90
19898;DHT22;10111;50.814;4.572;2022-10-16T16:09:17;18.40;99.90
19898;DHT22;10111;50.814;4.572;2022-10-16T16:11:42;18.40;99.90
19898;DHT22;10111;50.814;4.572;2022-10-16T16:14:13;18.20;99.90
19898;DHT22;10111;50.814;4.572;2022-10-16T16:16:38;18.20;99.90
19898;DHT22;10111;50.814;4.572;2022-10-16T16:19:05;18.20;99.90
19898;DHT22;10111;50.814;4.572;2022-10-16T16:21:35;18.20;99.90
19898;DHT22;10111;50.814;4.572;2022-10-16T16:24:00;18.20;99.90
19898;DHT22;10111;50.814;4.572;2022-10-16T16:26:30;18.10;99.90
19898;DHT22;10111;50.814;4.572;2022-10-16T16:29:02;18.00;99.90
19898;DHT22;10111;50.814;4.572;2022-10-16T16:31:29;17.90;99.90
19898;DHT22;10111;50.814;4.572;2022-10-16T16:33:55;17.80;99.90
19898;DHT22;10111;50.814;4.572;2022-10-16T16:36:22;17.70;99.90
19898;DHT22;10111;50.814;4.572;2022-10-16T16:38:48;17.70;99.90
19898;DHT22;10111;50.814;4.572;2022-10-16T16:43:42;17.80;99.90
19898;DHT22;10111;50.814;4.572;2022-10-16T16:46:08;17.70;99.90
19898;DHT22;10111;50.814;4.572;2022-10-16T16:48:35;17.70;99.90
19898;DHT22;10111;50.814;4.572;2022-10-16T16:51:09;17.60;99.90
19898;DHT22;10111;50.814;4.572;2022-10-16T16:53:36;17.60;99.90
19898;DHT22;10111;50.814;4.572;2022-10-16T16:56:03;17.60;99.90
19898;DHT22;10111;50.814;4.572;2022-10-16T16:58:30;17.60;99.90
19898;DHT22;10111;50.814;4.572;2022-10-16T17:00:55;17.60;99.90
19898;DHT22;10111;50.814;4.572;2022-10-16T17:03:21;17.70;99.90
19898;DHT22;10111;50.814;4.572;2022-10-16T17:06:02;17.60;99.90
19898;DHT22;10111;50.814;4.572;2022-10-16T17:08:28;17.60;99.90
19898;DHT22;10111;50.814;4.572;2022-10-16T17:10:55;17.70;99.90
19898;DHT22;10111;50.814;4.572;2022-10-16T17:13:26;17.60;99.90
19898;DHT22;10111;50.814;4.572;2022-10-16T17:15:53;17.50;99.90
19898;DHT22;10111;50.814;4.572;2022-10-16T17:18:20;17.60;99.90
19898;DHT22;10111;50.814;4.572;2022-10-16T17:20:47;17.50;99.90
19898;DHT22;10111;50.814;4.572;2022-10-16T17:23:17;17.70;99.90
19898;DHT22;10111;50.814;4.572;2022-10-16T17:25:44;17.50;99.90
19898;DHT22;10111;50.814;4.572;2022-10-16T17:28:11;17.40;99.90
19898;DHT22;10111;50.814;4.572;2022-10-16T17:30:38;17.40;99.90
19898;DHT22;10111;50.814;4.572;2022-10-16T17:33:04;17.40;99.90
19898;DHT22;10111;50.814;4.572;2022-10-16T17:35:39;17.40;99.90
19898;DHT22;10111;50.814;4.572;2022-10-16T17:38:05;17.40;99.90
19898;DHT22;10111;50.814;4.572;2022-10-16T17:40:32;17.30;99.90
19898;DHT22;10111;50.814;4.572;2022-10-16T17:42:57;17.30;99.90
19898;DHT22;10111;50.814;4.572;2022-10-16T17:45:23;17.30;99.90